Payson, Arizona
Current Conditions -  °F | °C
As of 11:15 PM on Sunday 25 Jan 2015 (Local Time) from KPAN Reporting Station
Clear Clear  
Wind Chill: 45°   Ceiling: Unl
Heat Index: 48°   Visibility: 10mi
Dew Point: 21°   Wind: 7mph
Humidity: 34%   Direction: 70°ENE
Pressure: 30.29"   Gusts: NA
Location:  34.23°N, 111.32°W
Report Text: KPAN 260615Z AUTO 07006KT 10SM CLR 09/M06 A3029 RMK AO2
Loading
Personal Weather Stations






























Interactive Weather Map New forecast layout! Learn more

10-Day Weather Forecast

Advertisements
Track Severe Weather on mobile